Time;durP1;ratioP1;P1;durP2;ratioP2;P2;SDS_P1;SDS_P2;PMS_P1;PMS_P2;Temp;Humidity;BMP_temperature;BMP_pressure;BME280_temperature;BME280_humidity;BME280_pressure;Samples;Min_cycle;Max_cycle;Signal;HPM_P1;HPM_P2
2024/01/07 00:11:17;;;;;;;51.90;18.70;;;;;;;-4.14;72.26;100758.08;681770;1265;139970;-79
2024/01/07 00:26:23;;;;;;;84.10;24.50;;;;;;;-4.34;72.12;100769.23;681698;1264;140897;-79
2024/01/07 00:41:27;;;;;;;83.70;24.10;;;;;;;-4.46;72.26;100779.87;681937;1265;140066;-79
2024/01/07 00:56:30;;;;;;;;;;;;;;;-4.63;72.19;100789.89;681898;1262;139919;-79
2024/01/07 01:11:34;;;;;;;40.30;16.10;;;;;;;-4.80;72.16;100787.61;681886;1266;126773;-79
2024/01/07 01:26:39;;;;;;;39.60;11.10;;;;;;;-5.06;71.94;100793.32;681784;1265;140530;-79
2024/01/07 01:41:42;;;;;;;36.80;15.50;;;;;;;-5.19;72.61;100810.39;681953;1265;140154;-79
2024/01/07 01:56:47;;;;;;;;;;;;;;;-5.27;72.36;100808.64;681728;1266;140645;-79
2024/01/07 02:12:11;;;;;;;53.40;15.00;;;;;;;-5.39;72.54;100811.00;681811;1265;127115;-79
2024/01/07 02:27:15;;;;;;;43.30;14.20;;;;;;;-5.39;72.41;100814.27;681864;1260;139759;-79
2024/01/07 02:42:19;;;;;;;43.90;14.80;;;;;;;-5.55;72.06;100822.65;681865;1262;140825;-79
2024/01/07 02:57:22;;;;;;;23.10;8.10;;;;;;;-5.87;71.46;100827.30;681972;1265;140471;-79
2024/01/07 03:12:26;;;;;;;18.10;9.40;;;;;;;-6.07;71.48;100823.27;681681;1264;139816;-79
2024/01/07 03:27:30;;;;;;;32.80;14.50;;;;;;;-6.01;71.42;100833.77;681831;1267;139875;-79
2024/01/07 03:42:33;;;;;;;47.00;19.10;;;;;;;-5.83;71.53;100838.99;681907;1264;140205;-79
2024/01/07 03:57:37;;;;;;;73.60;24.40;;;;;;;-5.78;71.23;100848.14;681777;1265;139644;-79
2024/01/07 04:12:40;;;;;;;117.60;34.40;;;;;;;-5.80;71.13;100855.50;681597;1264;139489;-79
2024/01/07 04:27:45;;;;;;;120.80;40.90;;;;;;;-5.73;71.32;100858.66;681793;1263;140487;-79
2024/01/07 04:42:48;;;;;;;137.50;42.40;;;;;;;-5.87;71.41;100869.88;681712;1261;140727;-79
2024/01/07 04:57:52;;;;;;;166.80;54.90;;;;;;;-6.06;70.75;100871.47;681801;1265;139701;-79
2024/01/07 05:12:55;;;;;;;112.60;37.50;;;;;;;-6.11;70.70;100871.18;681787;1265;142544;-81
2024/01/07 05:28:00;;;;;;;97.20;31.40;;;;;;;-6.55;69.93;100886.89;681903;1265;140101;-79
2024/01/07 05:43:04;;;;;;;28.70;13.20;;;;;;;-6.96;69.87;100905.70;681782;1262;139316;-80
2024/01/07 05:58:08;;;;;;;50.60;20.20;;;;;;;-6.98;69.86;100922.55;681880;1265;142034;-80
2024/01/07 06:13:12;;;;;;;46.60;20.00;;;;;;;-6.95;70.09;100926.27;681680;1261;139678;-80
2024/01/07 06:28:16;;;;;;;36.40;16.90;;;;;;;-7.13;69.45;100927.39;681813;1265;139927;-80
2024/01/07 06:43:20;;;;;;;52.10;23.20;;;;;;;-7.39;69.34;100938.05;681821;1262;139883;-81
2024/01/07 06:58:24;;;;;;;62.20;24.90;;;;;;;-7.42;69.68;100943.65;681894;1262;141688;-80
2024/01/07 07:13:27;;;;;;;95.10;33.10;;;;;;;-7.59;69.34;100963.75;681418;1266;142431;-80
2024/01/07 07:28:31;;;;;;;254.40;75.00;;;;;;;-7.60;69.23;100976.15;681829;1265;142596;-81
2024/01/07 07:43:35;;;;;;;200.10;66.10;;;;;;;-7.37;69.12;100981.03;681789;1262;140362;-81
2024/01/07 07:58:39;;;;;;;208.20;53.80;;;;;;;-7.69;68.49;100992.82;681767;1265;140148;-80
2024/01/07 08:13:42;;;;;;;113.10;35.40;;;;;;;-7.39;68.78;101008.23;681744;1265;139593;-81
2024/01/07 08:28:46;;;;;;;55.10;18.80;;;;;;;-7.21;68.58;101014.65;681951;1265;140255;-81
2024/01/07 08:43:50;;;;;;;63.40;25.10;;;;;;;-6.91;68.61;101027.29;681810;1265;139185;-80
2024/01/07 08:58:53;;;;;;;42.30;19.40;;;;;;;-6.21;68.27;101037.48;681857;1262;139318;-81
2024/01/07 09:13:57;;;;;;;55.50;25.10;;;;;;;-5.93;67.83;101046.80;681800;1262;139511;-80
2024/01/07 09:29:01;;;;;;;59.50;22.00;;;;;;;-5.96;68.08;101054.31;681723;1265;139775;-79
2024/01/07 09:44:07;;;;;;;58.80;24.80;;;;;;;-5.78;68.34;101053.65;681683;1265;140683;-81
2024/01/07 09:59:11;;;;;;;84.50;33.90;;;;;;;-5.51;68.11;101048.65;681671;1265;139904;-81
2024/01/07 10:14:15;;;;;;;46.00;19.70;;;;;;;-5.16;67.93;101054.27;681657;1265;139442;-81
2024/01/07 10:29:20;;;;;;;;;;;;;;;-5.06;67.93;101054.67;681485;1262;139446;-78
2024/01/07 10:44:30;;;;;;;43.20;16.00;;;;;;;-5.05;67.25;101057.40;681324;1266;125975;-80
2024/01/07 10:59:36;;;;;;;44.90;19.90;;;;;;;-5.38;66.56;101049.20;681400;1266;139532;-80
2024/01/07 11:14:44;;;;;;;55.90;19.30;;;;;;;-5.27;66.93;101046.02;681424;1265;140890;-80
2024/01/07 11:29:56;;;;;;;66.00;24.70;;;;;;;-5.25;66.56;101050.10;681305;1267;139569;-80
2024/01/07 11:45:00;;;;;;;85.70;29.40;;;;;;;-5.41;66.40;101045.32;681433;1267;140858;-78
2024/01/07 12:00:04;;;;;;;55.30;22.80;;;;;;;-5.28;66.42;101052.34;681238;1278;139466;-78
2024/01/07 12:15:14;;;;;;;57.00;20.70;;;;;;;-5.01;66.36;101052.58;681642;1264;139947;-82
2024/01/07 12:30:21;;;;;;;70.10;25.00;;;;;;;-5.39;65.60;101058.77;681326;1262;139578;-81
2024/01/07 12:45:25;;;;;;;50.60;19.30;;;;;;;-5.41;65.89;101049.75;681287;1262;140770;-81
2024/01/07 13:00:34;;;;;;;72.60;25.00;;;;;;;-5.55;65.57;101051.24;681411;1267;140053;-79
2024/01/07 13:15:38;;;;;;;45.20;15.70;;;;;;;-5.43;65.56;101057.61;681447;1268;140005;-79
2024/01/07 13:30:42;;;;;;;88.10;25.50;;;;;;;-5.66;65.17;101074.52;681228;1263;140310;-79
2024/01/07 13:45:45;;;;;;;113.60;32.60;;;;;;;-5.90;65.02;101096.00;681534;1265;139374;-79
2024/01/07 14:00:50;;;;;;;69.10;23.60;;;;;;;-6.44;64.61;101098.72;681270;1267;140308;-79
2024/01/07 14:15:57;;;;;;;142.90;47.60;;;;;;;-6.81;64.76;101103.31;681342;1265;139807;-81
2024/01/07 14:31:03;;;;;;;63.30;19.90;;;;;;;-6.84;64.83;101116.42;681232;1262;141312;-81
2024/01/07 14:46:08;;;;;;;58.10;21.10;;;;;;;-6.88;65.13;101119.14;681447;1267;139126;-79
2024/01/07 15:01:13;;;;;;;104.80;31.40;;;;;;;-7.08;65.14;101138.39;681346;1267;139946;-81
2024/01/07 15:16:18;;;;;;;104.70;32.50;;;;;;;-7.53;64.81;101152.37;681544;1267;140430;-79
2024/01/07 15:31:23;;;;;;;161.10;45.70;;;;;;;-7.91;64.66;101166.74;681391;1267;139580;-79
2024/01/07 15:46:28;;;;;;;328.20;93.20;;;;;;;-8.32;64.73;101185.80;681502;1263;139588;-80
2024/01/07 16:01:31;;;;;;;161.60;49.10;;;;;;;-8.40;64.53;101200.88;681431;1267;140547;-79
2024/01/07 16:16:38;;;;;;;89.60;30.70;;;;;;;-8.54;64.45;101219.48;681448;1266;140228;-80
2024/01/07 16:31:42;;;;;;;85.50;25.50;;;;;;;-8.73;64.40;101228.20;681408;1268;139780;-80
2024/01/07 16:46:46;;;;;;;72.20;23.10;;;;;;;-8.92;64.33;101236.89;681403;1267;139812;-80
2024/01/07 19:21:16;;;;;;;73.30;24.50;;;;;;;-11.20;79.10;101379.70;668125;1282;545762;-80
2024/01/07 19:36:21;;;;;;;84.40;25.90;;;;;;;-10.37;71.39;101389.70;676923;1271;139095;-80
2024/01/07 19:51:25;;;;;;;113.30;33.70;;;;;;;-9.99;70.41;101406.98;677511;1273;139640;-80
2024/01/07 20:06:30;;;;;;;199.70;55.40;;;;;;;-9.23;68.07;101427.65;675914;1272;138584;-81
2024/01/07 20:21:37;;;;;;;86.30;27.40;;;;;;;-9.20;66.97;101434.63;677069;1272;140153;-81
2024/01/07 20:36:42;;;;;;;101.50;31.40;;;;;;;-9.22;66.75;101452.07;674877;1275;138556;-81
2024/01/07 20:51:46;;;;;;;145.90;47.80;;;;;;;-8.95;66.75;101468.32;674838;1275;140068;-80
2024/01/07 21:06:51;;;;;;;118.80;28.70;;;;;;;-8.91;66.15;101481.06;675839;1273;140393;-80
2024/01/07 21:21:54;;;;;;;100.30;31.40;;;;;;;-9.00;65.94;101483.19;676625;1274;139663;-81
2024/01/07 21:36:59;;;;;;;129.80;36.90;;;;;;;-9.21;65.56;101490.22;676656;1276;140371;-81
2024/01/07 21:52:05;;;;;;;95.70;29.10;;;;;;;-9.37;65.28;101505.43;677198;1270;139377;-82
2024/01/07 22:07:10;;;;;;;68.00;20.60;;;;;;;-9.68;64.90;101528.86;673707;1286;139531;-82
2024/01/07 22:22:14;;;;;;;79.40;23.70;;;;;;;-9.66;65.22;101540.75;675631;1273;139611;-80
2024/01/07 22:37:17;;;;;;;78.50;26.20;;;;;;;-9.60;64.94;101551.67;675985;1272;141574;-80
2024/01/07 22:52:21;;;;;;;76.70;24.50;;;;;;;-9.59;64.93;101555.93;676748;1272;139686;-80
2024/01/07 23:07:28;;;;;;;62.20;20.00;;;;;;;-9.72;65.06;101567.41;675142;1275;139092;-80
2024/01/07 23:22:34;;;;;;;69.70;22.70;;;;;;;-9.88;64.84;101582.07;675623;1272;138992;-80
2024/01/07 23:37:39;;;;;;;46.80;19.10;;;;;;;-10.07;64.77;101596.27;676338;1269;140040;-80
2024/01/07 23:52:43;;;;;;;36.30;15.00;;;;;;;-10.39;64.43;101625.00;677176;1270;139714;-80
